Ashley, Michigan
Current Conditions -  °F | °C
As of 6:55 AM on Monday 22 Dec 2014 (Local Time) from KAMN Reporting Station
Haze Haze  
Wind Chill: 20°   Ceiling: Unl
Heat Index: 26°   Visibility: 4mi
Dew Point: 25°   Wind: 6mph
Humidity: 96%   Direction: 120°ESE
Pressure: 30.08"   Gusts: NA
Location:  43.19°N, 84.47°W
Report Text: KAMN 221155Z AUTO 12005KT 4SM BR CLR M03/M04 A3008 RMK AO2 T10311037 11021 21045
Loading
Personal Weather Stations






























Interactive Weather Map New forecast layout! Learn more

10-Day Weather Forecast

Advertisements
Track Severe Weather on mobile